Time;durP1;ratioP1;P1;durP2;ratioP2;P2;SDS_P1;SDS_P2;PMS_P1;PMS_P2;Temp;Humidity;BMP_temperature;BMP_pressure;BME280_temperature;BME280_humidity;BME280_pressure;Samples;Min_cycle;Max_cycle;Signal;HPM_P1;HPM_P2
2023/07/13 00:00:08;;;;;;;10.83;2.50;;;14.10;64.20;;;;;;5053508;28;20451;-69
2023/07/13 00:02:35;;;;;;;10.73;2.80;;;14.10;64.70;;;;;;5053356;28;20820;-69
2023/07/13 00:05:02;;;;;;;7.50;2.40;;;14.10;64.70;;;;;;5055991;28;20938;-69
2023/07/13 00:07:31;;;;;;;7.90;2.63;;;14.10;64.70;;;;;;5057122;28;20487;-69
2023/07/13 00:09:58;;;;;;;6.67;1.93;;;14.10;64.70;;;;;;5057371;28;20468;-70
2023/07/13 00:12:28;;;;;;;7.80;2.60;;;14.10;65.50;;;;;;5057051;28;20472;-70
2023/07/13 00:14:58;;;;;;;7.10;2.20;;;14.10;64.60;;;;;;5057250;28;20452;-70
2023/07/13 00:17:25;;;;;;;6.00;2.20;;;14.10;64.70;;;;;;5056914;28;20451;-69
2023/07/13 00:19:52;;;;;;;6.10;1.80;;;14.10;64.60;;;;;;5057194;28;20458;-69
2023/07/13 00:22:19;;;;;;;5.60;2.20;;;14.20;64.40;;;;;;5056728;28;20985;-70
2023/07/13 00:24:46;;;;;;;5.40;1.87;;;14.20;61.80;;;;;;5057102;28;20493;-70
2023/07/13 00:27:13;;;;;;;6.93;1.90;;;14.30;56.90;;;;;;5056743;28;20542;-69
2023/07/13 00:29:40;;;;;;;8.10;2.40;;;14.30;61.20;;;;;;5056998;28;20451;-69
2023/07/13 00:32:11;;;;;;;9.87;2.40;;;14.30;60.80;;;;;;5056790;28;20482;-69
2023/07/13 00:34:38;;;;;;;5.50;1.90;;;14.20;62.60;;;;;;5056731;28;20857;-70
2023/07/13 00:37:07;;;;;;;11.80;2.33;;;14.30;63.50;;;;;;5056425;28;20463;-69
2023/07/13 00:39:34;;;;;;;5.67;2.20;;;14.30;63.80;;;;;;5056815;28;20815;-69
2023/07/13 00:42:01;;;;;;;8.70;2.03;;;14.30;64.80;;;;;;5056338;28;20947;-69
2023/07/13 00:44:29;;;;;;;6.60;2.40;;;14.20;64.80;;;;;;5056399;28;20454;-69
2023/07/13 00:46:58;;;;;;;8.80;2.10;;;14.30;62.60;;;;;;5056323;28;20462;-69
2023/07/13 00:49:30;;;;;;;5.87;2.30;;;14.20;64.80;;;;;;5056326;28;20451;-70
2023/07/13 00:52:01;;;;;;;8.40;2.10;;;14.20;64.80;;;;;;5056510;28;20467;-70
2023/07/13 00:54:32;;;;;;;9.13;2.70;;;14.20;64.80;;;;;;5056488;28;20511;-70
2023/07/13 00:57:03;;;;;;;7.97;2.10;;;14.30;64.90;;;;;;5056220;28;20436;-70
2023/07/13 00:59:30;;;;;;;9.53;1.80;;;14.20;64.80;;;;;;5056160;28;20462;-70
2023/07/13 01:01:57;;;;;;;8.53;2.10;;;14.20;64.80;;;;;;5055962;28;20932;-70
2023/07/13 01:04:27;;;;;;;7.10;2.67;;;14.10;64.70;;;;;;5056191;28;20475;-70
2023/07/13 01:06:54;;;;;;;7.67;2.60;;;14.10;64.70;;;;;;5056317;28;20452;-70
2023/07/13 01:09:21;;;;;;;8.20;2.60;;;14.10;64.70;;;;;;5055964;28;20458;-70
2023/07/13 01:11:49;;;;;;;6.63;2.10;;;14.10;64.70;;;;;;5056183;28;21072;-70
2023/07/13 01:14:16;;;;;;;7.80;2.47;;;14.10;64.70;;;;;;5055949;28;20479;-70
2023/07/13 01:16:47;;;;;;;12.23;3.10;;;14.10;64.70;;;;;;5055196;28;20530;-71
2023/07/13 01:19:35;;;;;;;7.70;2.30;;;14.10;64.70;;;;;;5055829;28;20448;-70
2023/07/13 01:22:08;;;;;;;5.60;1.80;;;14.10;64.80;;;;;;5055696;28;20922;-70
2023/07/13 01:24:36;;;;;;;9.50;2.43;;;14.00;64.60;;;;;;5055988;28;20443;-70
2023/07/13 01:27:04;;;;;;;10.47;2.47;;;13.90;67.30;;;;;;5055979;28;20860;-70
2023/07/13 01:29:32;;;;;;;8.23;2.50;;;13.90;69.30;;;;;;5055902;28;20806;-70
2023/07/13 01:31:59;;;;;;;5.20;2.10;;;13.80;69.30;;;;;;5055823;28;20543;-70
2023/07/13 01:34:26;;;;;;;6.00;2.60;;;13.80;72.50;;;;;;5055281;28;20472;-70
2023/07/13 01:36:54;;;;;;;5.20;2.60;;;13.80;72.50;;;;;;5055431;28;20835;-70
2023/07/13 01:39:22;;;;;;;8.50;2.70;;;13.70;72.40;;;;;;5055700;28;20448;-70
2023/07/13 01:41:49;;;;;;;5.60;2.30;;;13.70;72.40;;;;;;5055611;28;20546;-70
2023/07/13 01:44:16;;;;;;;8.67;2.60;;;13.70;72.50;;;;;;5055472;28;20447;-70
2023/07/13 01:46:43;;;;;;;7.87;2.73;;;13.70;72.50;;;;;;5055557;28;20475;-71
2023/07/13 01:49:10;;;;;;;6.13;2.13;;;13.70;72.40;;;;;;5055144;28;20456;-70
2023/07/13 01:51:37;;;;;;;10.97;2.57;;;13.70;71.40;;;;;;5055045;28;20937;-71
2023/07/13 01:54:03;;;;;;;9.90;2.53;;;13.80;70.50;;;;;;5055163;28;20468;-71
2023/07/13 01:56:32;;;;;;;8.00;2.40;;;13.80;72.50;;;;;;5055362;28;20452;-71
2023/07/13 01:58:58;;;;;;;8.57;2.73;;;13.80;72.50;;;;;;5055338;28;20456;-70
2023/07/13 02:01:25;;;;;;;6.83;2.97;;;13.80;72.50;;;;;;5055264;28;20463;-70
2023/07/13 02:03:52;;;;;;;7.60;2.50;;;13.80;72.50;;;;;;5055021;28;20534;-70
2023/07/13 02:06:19;;;;;;;8.60;2.97;;;13.80;72.50;;;;;;5055160;28;20885;-70
2023/07/13 02:08:46;;;;;;;7.93;3.47;;;13.80;80.30;;;;;;5055110;28;20452;-70
2023/07/13 02:11:13;;;;;;;5.57;3.40;;;13.80;80.40;;;;;;5054783;28;20452;-70
2023/07/13 02:13:41;;;;;;;8.10;3.33;;;13.80;80.40;;;;;;5054616;28;20479;-71
2023/07/13 02:16:08;;;;;;;5.20;3.50;;;13.80;80.40;;;;;;5055003;28;20479;-70
2023/07/13 02:18:35;;;;;;;10.47;3.70;;;13.70;80.30;;;;;;5054937;28;20521;-71
2023/07/13 02:21:02;;;;;;;7.23;3.60;;;13.70;80.30;;;;;;5054831;28;20458;-70
2023/07/13 02:23:29;;;;;;;6.57;3.33;;;13.70;80.30;;;;;;5054520;28;20451;-70
2023/07/13 02:25:57;;;;;;;8.07;4.10;;;13.60;80.20;;;;;;5054794;28;20538;-70
2023/07/13 02:28:24;;;;;;;7.23;3.40;;;13.60;81.50;;;;;;5054323;28;20969;-70
2023/07/13 02:30:52;;;;;;;6.00;4.37;;;13.50;80.10;;;;;;5054709;28;20543;-70
2023/07/13 02:33:19;;;;;;;9.57;4.60;;;13.50;87.80;;;;;;5054136;28;20850;-71
2023/07/13 02:35:46;;;;;;;8.17;4.43;;;13.50;87.60;;;;;;5054441;28;20478;-70
2023/07/13 02:38:12;;;;;;;8.97;5.20;;;13.50;87.80;;;;;;5054267;28;20436;-70
2023/07/13 02:40:39;;;;;;;10.80;4.40;;;13.50;84.10;;;;;;5054513;28;20808;-71
2023/07/13 02:43:06;;;;;;;7.50;4.20;;;13.50;84.00;;;;;;5053990;28;20492;-70
2023/07/13 02:45:33;;;;;;;7.57;4.03;;;13.50;82.20;;;;;;5054413;28;20459;-71
2023/07/13 02:48:01;;;;;;;6.60;3.93;;;13.40;83.90;;;;;;5054425;28;20800;-65
2023/07/13 02:50:28;;;;;;;6.23;4.30;;;13.40;83.50;;;;;;5054044;28;20480;-66
2023/07/13 02:52:55;;;;;;;5.17;3.90;;;13.40;80.10;;;;;;5052801;28;20981;-65
2023/07/13 02:55:22;;;;;;;6.50;4.43;;;13.40;85.10;;;;;;5053957;28;20547;-66
2023/07/13 02:57:50;;;;;;;10.63;4.60;;;13.40;84.60;;;;;;5053926;28;20491;-66
2023/07/13 03:00:17;;;;;;;6.77;4.40;;;13.30;86.10;;;;;;5054246;28;20842;-65
2023/07/13 03:02:45;;;;;;;16.37;5.10;;;13.40;87.30;;;;;;5052333;28;20470;-65
2023/07/13 03:05:14;;;;;;;14.83;4.53;;;13.30;87.70;;;;;;5054090;28;20458;-66
2023/07/13 03:07:42;;;;;;;21.67;11.13;;;13.30;83.80;;;;;;5054112;28;20451;-67
2023/07/13 03:10:10;;;;;;;13.43;4.60;;;13.30;83.90;;;;;;5054051;28;20491;-66
2023/07/13 03:12:36;;;;;;;8.13;5.27;;;13.30;85.10;;;;;;5052848;28;20501;-66
2023/07/13 03:15:04;;;;;;;10.20;5.50;;;13.30;85.90;;;;;;5053373;28;20455;-66
2023/07/13 03:17:31;;;;;;;6.47;4.73;;;13.30;87.50;;;;;;5053601;28;20546;-66
2023/07/13 03:19:57;;;;;;;11.13;6.70;;;13.30;84.90;;;;;;5053601;28;20455;-66
2023/07/13 03:22:26;;;;;;;5.83;4.60;;;13.20;86.70;;;;;;5053341;28;20452;-65
2023/07/13 03:24:52;;;;;;;8.80;3.90;;;13.20;87.50;;;;;;5053189;28;20452;-66
2023/07/13 03:27:19;;;;;;;9.50;4.20;;;13.20;84.60;;;;;;5053506;28;20451;-66
2023/07/13 03:29:46;;;;;;;12.47;4.77;;;13.10;83.70;;;;;;5053479;28;20494;-66
2023/07/13 03:32:13;;;;;;;8.40;5.57;;;13.10;87.50;;;;;;5052892;28;20447;-66
2023/07/13 03:34:40;;;;;;;7.00;4.43;;;13.20;87.50;;;;;;5053224;28;20476;-66
2023/07/13 03:37:07;;;;;;;7.70;4.40;;;13.20;85.00;;;;;;5053295;28;20463;-66
2023/07/13 03:39:35;;;;;;;11.20;4.60;;;13.20;85.20;;;;;;5053128;28;20462;-66
2023/07/13 03:42:02;;;;;;;8.43;4.37;;;13.20;85.30;;;;;;5053069;28;20452;-66
2023/07/13 03:44:29;;;;;;;8.53;4.10;;;13.20;83.20;;;;;;5052710;28;20958;-66
2023/07/13 03:46:55;;;;;;;8.43;3.83;;;13.30;80.00;;;;;;5053615;28;20455;-66
2023/07/13 03:49:22;;;;;;;9.70;5.53;;;13.30;80.00;;;;;;5053600;28;20543;-66
2023/07/13 03:51:49;;;;;;;8.03;5.37;;;13.40;80.00;;;;;;5053065;28;20474;-66
2023/07/13 03:54:16;;;;;;;13.13;4.70;;;13.50;80.90;;;;;;5052378;28;20471;-65
2023/07/13 03:56:44;;;;;;;8.20;4.30;;;13.50;80.10;;;;;;5053498;28;20458;-66
2023/07/13 03:59:11;;;;;;;8.40;4.60;;;13.60;80.20;;;;;;5053171;28;20964;-65
2023/07/13 04:01:39;;;;;;;7.30;4.40;;;13.60;84.00;;;;;;5053794;28;20456;-66
2023/07/13 04:04:05;;;;;;;8.40;4.70;;;13.60;80.20;;;;;;5052152;28;20448;-65
2023/07/13 04:06:33;;;;;;;11.53;4.87;;;13.60;82.80;;;;;;5053434;28;20451;-65
2023/07/13 04:09:02;;;;;;;16.43;5.30;;;13.70;82.20;;;;;;5053390;28;20458;-65
2023/07/13 04:11:31;;;;;;;15.43;5.07;;;13.70;85.30;;;;;;5053306;28;20461;-65
2023/07/13 04:14:00;;;;;;;9.07;4.60;;;13.80;83.50;;;;;;5052521;28;20475;-65
2023/07/13 04:16:26;;;;;;;8.07;4.57;;;13.90;80.50;;;;;;5053012;28;20981;-65
2023/07/13 04:18:58;;;;;;;8.90;4.10;;;13.90;80.50;;;;;;5053319;28;20462;-66
2023/07/13 04:21:26;;;;;;;6.87;4.70;;;14.00;80.50;;;;;;5053249;28;20509;-65
2023/07/13 04:23:53;;;;;;;6.50;3.90;;;14.00;80.60;;;;;;5051920;28;20449;-65
2023/07/13 04:26:20;;;;;;;7.80;3.40;;;14.10;80.70;;;;;;5053218;28;20475;-65
2023/07/13 04:28:48;;;;;;;7.80;3.53;;;14.20;80.80;;;;;;5053224;28;20879;-65
2023/07/13 04:31:16;;;;;;;9.63;4.50;;;14.20;80.80;;;;;;5053705;28;20509;-66
2023/07/13 04:33:43;;;;;;;7.70;3.93;;;14.20;80.70;;;;;;5051477;28;20989;-66
2023/07/13 04:36:10;;;;;;;7.70;3.80;;;14.20;80.80;;;;;;5052872;28;20459;-65
2023/07/13 04:38:37;;;;;;;7.23;3.60;;;14.30;80.90;;;;;;5052792;28;20455;-65
2023/07/13 04:41:07;;;;;;;7.93;3.27;;;14.40;81.00;;;;;;5053112;28;20452;-65
2023/07/13 04:43:34;;;;;;;10.53;3.70;;;14.40;81.00;;;;;;5051775;28;20892;-66
2023/07/13 04:46:05;;;;;;;8.33;4.27;;;14.50;81.10;;;;;;5052769;28;20953;-65
2023/07/13 04:48:34;;;;;;;12.23;3.47;;;14.50;81.10;;;;;;5052715;28;20938;-66
2023/07/13 04:51:01;;;;;;;9.77;3.73;;;14.60;81.10;;;;;;5054079;28;20455;-66
2023/07/13 04:53:29;;;;;;;7.27;5.40;;;14.60;81.10;;;;;;5055224;28;20482;-66
2023/07/13 04:55:56;;;;;;;7.43;3.43;;;14.70;81.20;;;;;;5056234;28;20458;-66
2023/07/13 04:58:24;;;;;;;10.97;3.23;;;14.80;81.20;;;;;;5056197;28;20455;-66
2023/07/13 05:00:52;;;;;;;16.10;3.20;;;14.80;81.30;;;;;;5056466;28;20452;-66
2023/07/13 05:03:18;;;;;;;7.67;2.50;;;14.90;77.10;;;;;;5055207;28;20817;-66
2023/07/13 05:05:57;;;;;;;9.40;2.93;;;15.00;73.70;;;;;;5056358;28;20495;-66
2023/07/13 05:08:24;;;;;;;11.57;3.03;;;15.10;74.10;;;;;;5056339;28;20446;-66
2023/07/13 05:10:51;;;;;;;6.80;2.47;;;15.20;73.80;;;;;;5055912;28;20456;-66
2023/07/13 05:13:18;;;;;;;15.63;3.03;;;15.30;73.90;;;;;;5054695;28;20458;-66
2023/07/13 05:15:45;;;;;;;6.77;2.93;;;15.50;74.10;;;;;;5056143;28;20458;-66
2023/07/13 05:18:11;;;;;;;8.87;2.87;;;15.50;72.50;;;;;;5056066;28;20452;-66
2023/07/13 05:20:38;;;;;;;10.30;3.70;;;15.70;68.40;;;;;;5056089;28;20503;-66
2023/07/13 05:23:07;;;;;;;8.20;2.87;;;15.80;66.30;;;;;;5054747;28;20827;-66
2023/07/13 05:25:33;;;;;;;7.53;2.60;;;16.00;66.50;;;;;;5055969;28;20814;-66
2023/07/13 05:28:00;;;;;;;10.33;3.33;;;16.30;66.70;;;;;;5055604;28;20457;-66
2023/07/13 05:30:27;;;;;;;17.60;4.10;;;16.70;66.90;;;;;;5055560;28;20451;-66
2023/07/13 05:32:54;;;;;;;8.53;2.10;;;16.90;59.30;;;;;;5054587;28;20888;-66
2023/07/13 05:35:21;;;;;;;9.37;1.93;;;17.20;59.30;;;;;;5055328;28;20990;-66
2023/07/13 05:37:48;;;;;;;9.93;2.27;;;17.50;58.70;;;;;;5056209;28;20462;-66
2023/07/13 05:40:16;;;;;;;5.67;2.23;;;17.50;57.40;;;;;;5055680;28;20458;-66
2023/07/13 05:42:43;;;;;;;11.73;3.50;;;17.50;55.40;;;;;;5054620;28;20452;-66
2023/07/13 05:45:10;;;;;;;6.87;2.27;;;17.70;54.50;;;;;;5055441;28;20454;-66
2023/07/13 05:47:37;;;;;;;12.97;2.57;;;17.90;54.90;;;;;;5055221;28;20455;-66
2023/07/13 05:50:04;;;;;;;8.17;1.83;;;18.20;51.60;;;;;;5055178;28;20452;-66
2023/07/13 05:52:31;;;;;;;7.87;2.20;;;18.60;51.90;;;;;;5054562;28;20457;-66
2023/07/13 05:54:58;;;;;;;8.00;2.07;;;18.60;51.90;;;;;;5055107;28;20932;-66
2023/07/13 05:57:26;;;;;;;8.00;2.27;;;18.60;51.90;;;;;;5055072;28;20460;-66
2023/07/13 05:59:53;;;;;;;10.53;2.00;;;18.90;52.20;;;;;;5055343;28;20451;-66
2023/07/13 06:02:20;;;;;;;8.27;2.47;;;18.90;52.20;;;;;;5053278;28;20483;-67
2023/07/13 06:04:47;;;;;;;8.57;2.47;;;18.70;52.00;;;;;;5054552;28;20927;-66
2023/07/13 06:07:14;;;;;;;6.97;2.30;;;18.70;52.90;;;;;;5055164;28;20452;-66
2023/07/13 06:09:40;;;;;;;7.33;2.47;;;18.70;52.00;;;;;;5055152;28;20459;-66
2023/07/13 06:12:09;;;;;;;13.13;2.37;;;18.80;53.00;;;;;;5054337;28;20475;-66
2023/07/13 06:14:37;;;;;;;7.53;2.20;;;19.10;52.40;;;;;;5054278;28;20834;-66
2023/07/13 06:17:04;;;;;;;13.13;3.50;;;19.00;47.80;;;;;;5054700;28;20545;-66
2023/07/13 06:19:31;;;;;;;10.30;2.60;;;19.30;48.70;;;;;;5054935;28;20871;-66
2023/07/13 06:21:59;;;;;;;12.70;3.20;;;19.30;47.00;;;;;;5054267;28;20539;-66
2023/07/13 06:24:26;;;;;;;12.63;2.90;;;19.30;45.60;;;;;;5054502;28;20448;-66
2023/07/13 06:26:53;;;;;;;18.77;3.00;;;19.40;46.00;;;;;;5054501;28;20451;-66
2023/07/13 06:29:20;;;;;;;9.93;2.50;;;19.50;43.90;;;;;;5054432;28;20461;-66
2023/07/13 06:31:48;;;;;;;12.10;3.37;;;19.90;45.60;;;;;;5054418;28;20462;-66
2023/07/13 06:34:15;;;;;;;8.40;3.07;;;19.90;44.30;;;;;;5053706;28;20844;-66
2023/07/13 06:36:42;;;;;;;8.00;3.00;;;20.20;41.30;;;;;;5054201;28;20469;-66
2023/07/13 06:39:09;;;;;;;11.33;2.97;;;20.30;39.50;;;;;;5054604;28;20478;-67
2023/07/13 06:41:35;;;;;;;10.70;2.60;;;20.60;39.70;;;;;;5053673;28;20463;-66
2023/07/13 06:44:02;;;;;;;11.50;2.27;;;21.20;36.40;;;;;;5053636;28;20452;-66
2023/07/13 06:46:30;;;;;;;13.70;2.77;;;21.20;36.40;;;;;;5054468;28;20471;-64
2023/07/13 06:48:58;;;;;;;11.30;3.50;;;21.00;36.20;;;;;;5054912;28;20467;-65
2023/07/13 06:51:25;;;;;;;10.00;3.27;;;20.70;35.90;;;;;;5054309;28;20447;-64
2023/07/13 06:53:52;;;;;;;8.87;2.70;;;20.70;36.00;;;;;;5053324;28;21009;-64
2023/07/13 06:56:19;;;;;;;11.27;2.47;;;20.40;35.70;;;;;;5053955;28;20456;-64
2023/07/13 06:58:46;;;;;;;6.90;2.60;;;20.20;35.50;;;;;;5053947;28;20459;-64
2023/07/13 07:01:13;;;;;;;9.47;2.60;;;19.90;38.80;;;;;;5054188;28;20455;-64
2023/07/13 07:03:40;;;;;;;8.30;3.20;;;19.60;41.10;;;;;;5053384;28;20455;-64
2023/07/13 07:06:14;;;;;;;8.90;2.90;;;19.40;43.80;;;;;;5054137;28;20794;-64
2023/07/13 07:08:41;;;;;;;10.53;2.90;;;19.30;43.70;;;;;;5054080;28;20493;-64
2023/07/13 07:11:13;;;;;;;9.90;3.03;;;19.50;43.90;;;;;;5054019;28;20495;-64
2023/07/13 07:13:40;;;;;;;11.20;3.00;;;19.40;43.80;;;;;;5052385;28;20456;-64
2023/07/13 07:16:08;;;;;;;11.33;3.50;;;19.60;44.00;;;;;;5053581;28;20483;-64
2023/07/13 07:18:35;;;;;;;8.57;3.00;;;19.50;43.90;;;;;;5053655;28;20455;-64
2023/07/13 07:21:02;;;;;;;8.27;2.90;;;19.50;43.90;;;;;;5053566;28;20452;-64
2023/07/13 07:23:30;;;;;;;8.93;2.60;;;19.20;43.70;;;;;;5052255;28;20455;-64
2023/07/13 07:25:57;;;;;;;9.23;3.33;;;19.30;43.70;;;;;;5053854;28;20448;-64
2023/07/13 07:28:24;;;;;;;14.87;3.23;;;19.40;44.70;;;;;;5053520;28;20463;-64
2023/07/13 07:30:54;;;;;;;14.20;4.30;;;19.30;43.70;;;;;;5053828;28;20950;-64
2023/07/13 07:33:21;;;;;;;10.63;3.30;;;19.30;43.90;;;;;;5051817;28;20456;-64
2023/07/13 07:35:48;;;;;;;11.53;3.10;;;19.50;43.90;;;;;;5053463;28;20475;-63
2023/07/13 07:38:15;;;;;;;11.30;3.20;;;19.60;44.00;;;;;;5053730;28;20440;-64
2023/07/13 07:40:43;;;;;;;14.03;3.90;;;19.60;44.00;;;;;;5053643;28;20860;-64
2023/07/13 07:43:12;;;;;;;9.43;3.57;;;19.70;44.10;;;;;;5052018;28;20550;-64
2023/07/13 07:45:39;;;;;;;12.90;3.50;;;19.70;44.10;;;;;;5053607;28;20451;-64
2023/07/13 07:48:09;;;;;;;8.73;3.30;;;20.00;44.40;;;;;;5053593;28;20452;-64
2023/07/13 07:50:38;;;;;;;9.20;2.83;;;20.20;44.50;;;;;;5053551;28;20456;-64
2023/07/13 07:53:07;;;;;;;10.57;3.10;;;20.30;41.40;;;;;;5051633;28;20452;-64
2023/07/13 07:55:34;;;;;;;10.80;3.23;;;20.50;40.30;;;;;;5053441;28;20834;-64
2023/07/13 07:58:03;;;;;;;14.60;3.50;;;20.40;39.00;;;;;;5053157;28;20935;-64
2023/07/13 08:00:31;;;;;;;10.37;3.40;;;20.50;40.20;;;;;;5053495;28;20507;-64
2023/07/13 08:02:58;;;;;;;10.63;3.07;;;20.80;36.20;;;;;;5051691;28;20960;-65
2023/07/13 08:05:27;;;;;;;11.97;3.10;;;20.80;36.10;;;;;;5053301;28;20452;-67
2023/07/13 08:07:54;;;;;;;16.07;3.27;;;20.80;36.50;;;;;;5054143;28;20563;-67
2023/07/13 08:10:21;;;;;;;16.60;4.17;;;20.90;36.20;;;;;;5053378;28;20565;-67
2023/07/13 08:12:48;;;;;;;9.53;3.23;;;20.90;36.20;;;;;;5051446;28;20958;-64
2023/07/13 08:15:17;;;;;;;13.73;3.93;;;20.90;36.10;;;;;;5052806;28;20471;-63
2023/07/13 08:17:44;;;;;;;8.80;3.13;;;21.00;36.20;;;;;;5053291;28;20452;-63
2023/07/13 08:20:11;;;;;;;11.70;3.13;;;21.30;37.40;;;;;;5053302;28;20845;-64
2023/07/13 08:22:38;;;;;;;10.97;3.23;;;21.40;36.60;;;;;;5052634;28;20542;-64
2023/07/13 08:25:06;;;;;;;9.83;2.73;;;21.20;36.40;;;;;;5054375;28;20443;-64
2023/07/13 08:27:33;;;;;;;9.47;2.93;;;21.60;36.80;;;;;;5056720;28;20463;-64
2023/07/13 08:30:00;;;;;;;9.33;2.80;;;21.70;34.00;;;;;;5056716;28;20455;-64
2023/07/13 08:32:28;;;;;;;9.67;3.07;;;21.80;32.40;;;;;;5056465;28;20795;-64
2023/07/13 08:34:55;;;;;;;11.30;3.17;;;21.70;36.80;;;;;;5056628;28;20479;-64
2023/07/13 08:37:22;;;;;;;11.73;2.90;;;22.10;35.00;;;;;;5057471;28;20464;-63
2023/07/13 08:39:49;;;;;;;10.77;3.40;;;22.10;30.40;;;;;;5056881;28;20426;-64
2023/07/13 08:42:28;;;;;;;10.27;2.67;;;22.20;34.40;;;;;;5056404;28;20451;-64
2023/07/13 08:45:05;;;;;;;11.63;2.57;;;21.80;28.30;;;;;;5056230;28;20440;-64
2023/07/13 08:47:37;;;;;;;9.53;2.50;;;22.10;31.10;;;;;;5056729;28;20446;-64
2023/07/13 08:50:04;;;;;;;13.70;2.60;;;21.60;28.20;;;;;;5056703;28;20447;-63
2023/07/13 08:52:34;;;;;;;13.53;3.10;;;21.60;28.20;;;;;;5056075;28;20471;-63
2023/07/13 08:55:06;;;;;;;13.27;3.03;;;21.40;32.50;;;;;;5056459;28;20475;-64
2023/07/13 08:57:35;;;;;;;9.90;3.07;;;21.70;31.50;;;;;;5056587;28;20462;-63
2023/07/13 09:00:05;;;;;;;7.73;2.40;;;21.90;29.10;;;;;;5056172;28;20459;-64
2023/07/13 09:02:42;;;;;;;8.37;2.60;;;22.40;28.70;;;;;;5056077;28;20451;-63
2023/07/13 09:05:14;;;;;;;9.40;2.27;;;22.70;28.90;;;;;;5055965;28;20930;-64
2023/07/13 09:07:56;;;;;;;9.30;2.80;;;23.00;26.80;;;;;;5056088;28;20447;-64
2023/07/13 09:10:29;;;;;;;8.57;2.23;;;23.20;25.60;;;;;;5056304;28;20435;-63
2023/07/13 09:13:08;;;;;;;9.00;2.50;;;23.50;22.20;;;;;;5055577;28;20458;-63
2023/07/13 09:15:39;;;;;;;9.43;2.27;;;24.00;22.60;;;;;;5055864;28;20978;-63
2023/07/13 09:18:12;;;;;;;8.07;2.80;;;24.00;22.60;;;;;;5057013;28;20839;-64
2023/07/13 09:20:45;;;;;;;7.53;2.37;;;23.70;22.40;;;;;;5056044;28;20474;-64
2023/07/13 09:23:15;;;;;;;11.03;2.60;;;24.00;22.60;;;;;;5055325;28;20459;-64
2023/07/13 09:25:44;;;;;;;7.70;2.40;;;23.90;18.90;;;;;;5055752;28;20915;-64
2023/07/13 09:28:16;;;;;;;11.60;2.60;;;24.30;19.70;;;;;;5055937;28;20459;-63
2023/07/13 09:30:51;;;;;;;8.77;2.63;;;24.70;15.60;;;;;;5055631;28;20535;-64
2023/07/13 09:33:19;;;;;;;10.00;2.43;;;24.70;17.60;;;;;;5055284;28;20454;-64
2023/07/13 09:35:46;;;;;;;8.50;2.50;;;25.10;15.80;;;;;;5055261;28;20490;-64
2023/07/13 09:38:15;;;;;;;8.10;2.33;;;25.60;16.10;;;;;;5054864;28;20446;-64
2023/07/13 09:40:54;;;;;;;14.67;2.77;;;25.50;12.30;;;;;;5055421;28;20467;-64
2023/07/13 09:43:22;;;;;;;8.47;2.50;;;25.50;16.10;;;;;;5054668;28;20937;-64
2023/07/13 09:45:49;;;;;;;9.47;2.63;;;25.00;15.80;;;;;;5055369;28;21045;-64
2023/07/13 09:48:19;;;;;;;14.80;2.47;;;24.50;11.90;;;;;;5055836;28;20459;-64
2023/07/13 09:50:46;;;;;;;10.33;3.20;;;24.00;15.10;;;;;;5055280;28;20455;-64
2023/07/13 09:53:15;;;;;;;8.13;2.70;;;24.30;15.30;;;;;;5054743;28;20509;-64
2023/07/13 09:55:43;;;;;;;8.60;2.80;;;24.20;15.30;;;;;;5055046;28;20488;-64
2023/07/13 09:58:14;;;;;;;11.83;2.70;;;24.80;15.60;;;;;;5055503;28;20815;-64
2023/07/13 10:00:41;;;;;;;10.47;2.03;;;25.40;12.20;;;;;;5055393;28;20432;-64
2023/07/13 10:03:20;;;;;;;9.20;2.70;;;25.70;12.30;;;;;;5054593;28;20452;-64
2023/07/13 10:05:50;;;;;;;8.50;2.90;;;26.10;8.70;;;;;;5055277;28;20436;-64
2023/07/13 10:08:20;;;;;;;6.13;1.83;;;26.00;4.80;;;;;;5055199;28;20438;-64
2023/07/13 10:10:52;;;;;;;11.50;2.67;;;25.20;8.20;;;;;;5055160;28;20532;-64
2023/07/13 10:13:36;;;;;;;9.47;2.87;;;24.90;7.40;;;;;;5054284;28;20994;-64
2023/07/13 10:16:05;;;;;;;10.20;2.57;;;24.90;8.20;;;;;;5054730;28;20460;-64
2023/07/13 10:18:43;;;;;;;9.37;2.10;;;25.30;8.30;;;;;;5054978;28;20460;-64
2023/07/13 10:21:17;;;;;;;11.83;3.00;;;25.70;9.20;;;;;;5054988;28;20462;-65
2023/07/13 10:23:46;;;;;;;7.80;2.23;;;26.10;8.70;;;;;;5054251;28;20559;-65
2023/07/13 10:26:19;;;;;;;8.50;2.30;;;26.20;5.50;;;;;;5054847;28;20540;-65
2023/07/13 10:28:52;;;;;;;15.87;2.70;;;26.70;5.30;;;;;;5054865;28;20458;-65
2023/07/13 10:31:21;;;;;;;7.70;2.43;;;26.00;8.70;;;;;;5054507;28;20436;-65
2023/07/13 10:33:50;;;;;;;9.27;2.40;;;26.50;3.30;;;;;;5053815;28;20452;-64
2023/07/13 10:36:28;;;;;;;6.40;2.10;;;26.20;1.00;;;;;;5054279;28;20484;-64
2023/07/13 10:38:58;;;;;;;10.70;2.60;;;26.00;1.40;;;;;;5053281;28;20459;-66
2023/07/13 10:41:28;;;;;;;8.60;2.80;;;26.40;1.00;;;;;;5054562;28;20299;-67
2023/07/13 10:43:57;;;;;;;7.07;2.53;;;26.20;1.00;;;;;;5054118;28;20440;-67
2023/07/13 10:46:28;;;;;;;8.70;2.27;;;26.30;1.00;;;;;;5054498;28;20813;-67
2023/07/13 10:49:00;;;;;;;9.13;2.40;;;26.30;3.00;;;;;;5054296;28;20797;-67
2023/07/13 10:51:29;;;;;;;9.53;2.40;;;25.00;3.90;;;;;;5054236;28;20448;-67
2023/07/13 10:54:21;;;;;;;8.13;1.97;;;24.90;7.90;;;;;;5053552;28;20550;-66
2023/07/13 10:56:52;;;;;;;7.97;2.10;;;25.00;8.10;;;;;;5054126;28;20492;-69
2023/07/13 10:59:25;;;;;;;7.83;2.27;;;24.90;8.10;;;;;;5054291;28;20432;-68
2023/07/13 11:01:56;;;;;;;11.93;2.70;;;25.00;8.10;;;;;;5054050;28;20913;-66
2023/07/13 11:04:27;;;;;;;7.03;2.23;;;25.40;8.30;;;;;;5054002;28;20527;-65
2023/07/13 11:06:59;;;;;;;8.97;2.60;;;25.20;3.40;;;;;;5053974;28;20486;-64
2023/07/13 11:09:36;;;;;;;6.80;1.93;;;24.70;3.90;;;;;;5054163;28;20440;-65
2023/07/13 11:12:08;;;;;;;7.70;2.17;;;25.00;8.10;;;;;;5053774;28;20801;-65
2023/07/13 11:14:38;;;;;;;7.97;1.83;;;25.20;1.00;;;;;;5053922;28;20456;-65
2023/07/13 11:17:26;;;;;;;5.70;2.00;;;24.60;1.70;;;;;;5053908;28;20818;-65
2023/07/13 11:20:05;;;;;;;6.70;2.00;;;24.00;7.40;;;;;;5053623;28;20456;-64
2023/07/13 11:22:44;;;;;;;5.40;2.63;;;23.60;7.10;;;;;;5053535;28;20813;-65
2023/07/13 11:25:32;;;;;;;7.30;2.20;;;24.40;6.80;;;;;;5053771;28;20443;-66
2023/07/13 11:28:12;;;;;;;7.37;1.60;;;24.70;6.10;;;;;;5053882;28;20490;-65
2023/07/13 11:30:42;;;;;;;11.53;2.03;;;24.40;6.20;;;;;;5053833;28;20439;-67
2023/07/13 11:33:16;;;;;;;6.50;2.00;;;23.80;7.90;;;;;;5053372;28;20467;-67
2023/07/13 11:35:52;;;;;;;6.20;2.00;;;23.70;7.90;;;;;;5053303;28;20479;-67
2023/07/13 11:38:21;;;;;;;8.05;2.40;;;23.80;7.30;;;;;;5053294;28;20458;-65
2023/07/13 11:40:50;;;;;;;5.40;1.60;;;23.80;7.30;;;;;;5053692;28;20207;-65
2023/07/13 11:43:18;;;;;;;9.20;2.00;;;23.60;7.10;;;;;;5053024;28;21014;-65
2023/07/13 11:45:45;;;;;;;8.63;2.20;;;24.60;7.60;;;;;;5053302;28;20453;-65
2023/07/13 11:48:23;;;;;;;10.93;2.57;;;25.90;1.00;;;;;;5053618;28;20487;-66
2023/07/13 11:50:58;;;;;;;8.27;2.33;;;26.90;1.30;;;;;;5053300;28;20452;-66
2023/07/13 11:53:29;;;;;;;7.67;2.10;;;28.10;1.00;;;;;;5052765;28;20460;-65
2023/07/13 11:55:56;;;;;;;9.03;2.10;;;27.80;1.00;;;;;;5054026;28;20469;-65
2023/07/13 11:58:26;;;;;;;7.73;1.60;;;27.30;1.00;;;;;;5053199;28;20453;-66
2023/07/13 12:00:54;;;;;;;6.70;1.73;;;26.70;1.00;;;;;;5055913;28;20957;-65
2023/07/13 12:03:24;;;;;;;6.03;1.40;;;27.00;1.00;;;;;;5056741;28;20456;-66
2023/07/13 12:06:00;;;;;;;8.60;2.20;;;27.30;1.00;;;;;;5057209;28;20484;-65
2023/07/13 12:08:28;;;;;;;5.97;2.10;;;27.50;1.00;;;;;;5057502;28;20890;-65
2023/07/13 12:11:05;;;;;;;5.80;1.70;;;28.40;1.00;;;;;;5057166;28;20988;-66
2023/07/13 12:13:37;;;;;;;7.00;2.23;;;29.00;1.00;;;;;;5056820;28;20824;-66
2023/07/13 12:16:15;;;;;;;8.50;2.17;;;29.20;1.00;;;;;;5056955;28;20463;-66
2023/07/13 12:18:45;;;;;;;11.60;1.87;;;30.00;1.00;;;;;;5056992;28;21009;-64
2023/07/13 12:21:18;;;;;;;6.57;1.83;;;29.30;1.00;;;;;;5057543;28;20439;-65
2023/07/13 12:23:46;;;;;;;9.47;2.77;;;28.70;1.00;;;;;;5056834;28;20523;-64
2023/07/13 12:26:14;;;;;;;7.20;1.60;;;28.20;1.00;;;;;;5057150;28;20877;-65
2023/07/13 12:28:47;;;;;;;9.27;2.20;;;27.70;1.00;;;;;;5056758;28;20433;-65
2023/07/13 12:31:27;;;;;;;5.20;1.40;;;27.30;1.00;;;;;;5056772;28;20875;-65
2023/07/13 12:33:59;;;;;;;10.93;2.80;;;27.60;1.00;;;;;;5056629;28;20947;-66
2023/07/13 12:36:30;;;;;;;5.13;1.53;;;28.20;1.00;;;;;;5056726;28;20456;-67
2023/07/13 12:39:03;;;;;;;6.07;1.40;;;28.90;1.00;;;;;;5056945;28;20447;-65
2023/07/13 12:41:30;;;;;;;7.53;1.93;;;28.50;1.00;;;;;;5056878;28;20502;-66
2023/07/13 12:43:57;;;;;;;5.63;1.50;;;29.40;1.00;;;;;;5056089;28;20870;-66
2023/07/13 12:46:28;;;;;;;6.83;1.83;;;30.10;1.00;;;;;;5056454;28;20426;-66
2023/07/13 12:48:58;;;;;;;7.47;1.90;;;31.30;1.00;;;;;;5056727;28;20541;-66
2023/07/13 12:51:28;;;;;;;7.03;1.90;;;29.80;1.00;;;;;;5056927;28;20459;-65
2023/07/13 12:54:06;;;;;;;6.70;1.60;;;29.70;1.00;;;;;;5055924;28;20459;-65